Max, NE (69037)

3:17 PM MST on December 07, 2016 (GMT -0700)
Dundy County Stratton High School | | Change Station
Active Advisory: Wind Chill Advisory Active Notice: Local Storm Report

Elev 3074 ft 40.05 °N, 101.54 °W | Updated 22 seconds ago

Light Snow
Light Snow
17.7 °F
Feels Like 5 °F
N
12.0
Wind Variable Wind from WNW
Gusts 12.0 mph

Today
High -- | Low -- °F
--% Chance of Precip.
Yesterday
High -- | Low -- °F
Precip. -- in
Pressure 30.50 in
Visibility 4.0 miles
Clouds Few 1500 ft
Overcast 2400 ft
Windchill 5 °F
Dew Point 11 °F
Humidity 75%
Rainfall 0.00 in
Snow Depth Not available.
6:54 AM 4:19 PM
First Quarter, 56% visible
METAR KIML 072153Z AUTO 32012KT 4SM -SN FEW015 OVC024 M09/M13 A3034 RMK AO2 SNB12 SLP328 P0000 T10891133
Pressure 30.50 in
Visibility 4.0 miles
Clouds Few 1500 ft
Overcast 2400 ft
Windchill 5 °F
Dew Point 11 °F
Humidity 75%
Rainfall 0.00 in
Snow Depth Not available.
6:54 AM 4:19 PM
First Quarter, 56% visible
METAR KIML 072153Z AUTO 32012KT 4SM -SN FEW015 OVC024 M09/M13 A3034 RMK AO2 SNB12 SLP328 P0000 T10891133

10-Day Weather Forecast

Almanac

Astronomy

Dec. 07, 2016 Rise Set
Actual Time
Civil Twilight
Nautical Twilight
Astronomical Twilight
Moon
Length of Visible Light
Length of Day
Tomorrow will be .
, % of the Moon is Illuminated

Today's Extremes

State Highs State Lows

Community

WunderPhotos

Upload Photos

1,956,209 photos uploaded!

WunderBlog® & News

Nearby

Air Quality

  Air Quality AQ Index Pollutant
Not available.

Snow Depth

Station Depth Elevation

Earthquake Activity

City Distance Mag. Time & Date
Minimum magnitude displayed is 2.5.

Coastal Water Temperatures

Place Temperature

Stations

Nearby Weather Stations

Station Location Temp. Windchill Dew Point Humidity Wind Precip. Elev Updated Type
                   

Watches & Warnings

Wind Chill Advisory
Issued: 2:28 PM CST Dec. 7, 2016 – National Weather Service

... Wind Chill Advisory in effect from 11 PM MST /midnight CST/
this evening to 8 am MST /9 am CST/ Thursday...

The National Weather Service in Goodland has issued a Wind Chill
Advisory... which is in effect from 11 PM MST /midnight CST/ this
evening to 8 am MST /9 am CST/ Thursday.

* Timing/duration... wind chills will drop to 10 to 15 below zero
around midnight tonight and continue to be dangerously cold
through Thursday morning.

Precautionary/preparedness actions...

A Wind Chill Advisory means that very cold air and strong winds
will combine to create dangerous wind chills of minus 15 to minus
25 degrees fahrenheit. Frost bite can occur in less than
30 minutes... and hypothermia may occur if precautions are not
taken. Make sure you wear a hat and gloves if you venture
outdoors.